- https://www.euro-online.org/enog/inoc2007/Papers/mac-slots.html https://www.euro-online.org/enog/inoc2007/Papers/mac-online-casinos.html
  • GrooveStats is a web site dedicated to tracking scores for In the Groove, and Pump It Up Pro, dance simulation games.
  • Primary features
  • Public online score submission
  • Automated score entry via USB flash drive data
  • Player vs Player comparison charts
  • Global and Regional rankings

counter

Drazu's Profile

Info
Bio USB
Songs
Quick Detailed
Marathons
Quick Detailed
Survival
Quick Detailed
Social
Challenges Messages
Filters
View
Difficulty Expert Hard Medium Easy
Type Single Double
Block Range to
Sort
Song Pack Points Score (%) Comments Date Rank
Magic Cycles Sharpnelstreamz v2 544 89.61   1/17/2015 14 / 17
WE WRITE AT TWO FIVE FIVE (bpm) Tachyon Spectrum 479 84.35   1/17/2015 3 / 4
Stay In Your Room With K. Sharpnelstreamz v2 447 81.59   1/17/2015 12 / 14
Over the Fullereneshift Sharpnelstreamz v2 348 93.97 C660, 20% Mini, ...  3/18/2014 5 / 12
Takecore Of Yourself Sharpnelstreamz v2 345 93.60   3/18/2014 11 / 21
Moonearth Disbalance Episode 3 345 93.58   C660, 20% Mini, ...  3/18/2014 23 / 39
Back to the Gate Sharpnelstreamz v2 337 92.56   C660, 20% Mini, ...  3/18/2014 20 / 30
Burst Linker Sharpnelstreamz v2 316 89.82   C660, 20% Mini, ...  3/18/2014 14 / 22
I Have a Bad Case Sharpnelstreamz 305 88.33   C660, 20% Mini, ...  3/18/2014 21 / 33
Anguish Speedcore 3 304 88.20   3/18/2014 19 / 30
Snows ~Soshite Kiseki~ Sharpnelstreamz 299 87.45   C660, 20% Mini, ...  3/18/2014 23 / 34
Pacific Girls Sharpnelstreamz v2 288 85.90   C660, 20% Mini, ...  3/18/2014 19 / 22
Magic Cycles Sharpnelstreamz 288 85.93   3/18/2014 18 / 22
Subaru in the Wind Oh Henry! Oh Henry! Mad Stamina 285 85.45   C660, 20% Mini, ...  3/18/2014 20 / 27
Jersey Spirit Oh Henry! Oh Henry! Mad Stamina 284 85.37   C660, 20% Mini, ...  3/18/2014 21 / 28
Love Hurts (Lonely Mix) Tachyon Spectrum 263 82.23 Video on my cha ...  1/17/2015 4 / 4
Dawn of the Kore (XAVI BCN Remix) Sharpnelstreamz v2 192 97.48 C660, 20% Mini, ...  3/18/2014 5 / 9
Blue Army Disbalance Episode 3 189 96.63   3/18/2014 18 / 43
V.L.S.I Tachyon Gamma 186 95.98   3/18/2014 16 / 32
Cyber Inductance Sharpnelstreamz 184 95.54   3/18/2014 12 / 28
Maginobionics Sharpnelstreamz v2 183 95.09   3/18/2014 13 / 26
Voyager Pendulum 180 94.51   1/17/2015 36 / 54
Oh Delia Tachyon Delta 180 94.41   3/18/2014 21 / 47
Gate Openerz Disbalance Episode 3 165 90.75   3/18/2014 30 / 42
Queen of Bootlegs Speedcore 3 163 90.23   3/18/2014 16 / 30
Omochikaerii Speedcore 3 163 90.14   3/18/2014 9 / 11
Disconnected Cirque du Lykan 162 89.78   3/18/2014 8 / 12
FuriFuri Sharpnelstreamz v2 160 89.33   3/18/2014 4 / 8
Jausmas Kai Zudai Speedcore 2 156 88.22   1/17/2015 8 / 13
Psi Glory Speedcore 3 156 88.13   3/18/2014 17 / 29
Of Course You NEED ME (Reprise) Speedcore 3 155 87.97   1/17/2015 17 / 36
Still Grey Disbalance Episode 3 146 85.51   1/17/2015 41 / 48
4 18 Na LSD Speedcore 2 137 82.92   1/17/2015 20 / 33
Kimochi-E-Koto (DJ Sharpnel Frenchcore Remix) Sharpnelstreamz v2 80 96.55   1/17/2015 10 / 17
Axle Grinder Pendulum 79 96.43   1/17/2015 35 / 49
The Fountain Disbalance Episode 3 78 95.45   1/17/2015 36 / 62
NullPoGa Sharpnelstreamz v2 77 95.04   1/17/2015 7 / 12
Together As One Sharpnelstreamz v2 74 93.08   C660, 20% Mini, ...  3/18/2014 7 / 13
No Other Choice Cirque du Lykan 25 98.99   1/17/2015 11 / 25
Score Entries: 39 Total Points: 8747 Avg Score: 90.67%